sensor_id;sensor_type;location;lat;lon;timestamp;temperature;humidity
53752;DHT22;41095;53.090;6.692;2023-03-01T00:00:37;2.10;99.90
53752;DHT22;41095;53.090;6.692;2023-03-01T00:03:03;1.40;99.90
53752;DHT22;41095;53.090;6.692;2023-03-01T00:05:29;1.20;99.90
53752;DHT22;41095;53.090;6.692;2023-03-01T00:07:54;1.30;99.90
53752;DHT22;41095;53.090;6.692;2023-03-01T00:10:20;1.30;99.90
53752;DHT22;41095;53.090;6.692;2023-03-01T00:12:46;1.40;99.90
53752;DHT22;41095;53.090;6.692;2023-03-01T00:15:12;1.50;99.90
53752;DHT22;41095;53.090;6.692;2023-03-01T00:17:37;2.40;99.90
53752;DHT22;41095;53.090;6.692;2023-03-01T00:20:04;1.40;99.90
53752;DHT22;41095;53.090;6.692;2023-03-01T00:22:33;1.40;99.90
53752;DHT22;41095;53.090;6.692;2023-03-01T00:24:59;1.50;99.90
53752;DHT22;41095;53.090;6.692;2023-03-01T00:27:25;1.60;99.90
53752;DHT22;41095;53.090;6.692;2023-03-01T00:29:50;1.40;99.90
53752;DHT22;41095;53.090;6.692;2023-03-01T00:32:17;1.30;99.90
53752;DHT22;41095;53.090;6.692;2023-03-01T00:34:43;1.30;99.90
53752;DHT22;41095;53.090;6.692;2023-03-01T00:37:20;1.40;99.90
53752;DHT22;41095;53.090;6.692;2023-03-01T00:39:46;1.20;99.90
53752;DHT22;41095;53.090;6.692;2023-03-01T00:42:12;1.10;99.90
53752;DHT22;41095;53.090;6.692;2023-03-01T00:44:37;1.10;99.90
53752;DHT22;41095;53.090;6.692;2023-03-01T00:47:03;1.60;99.90
53752;DHT22;41095;53.090;6.692;2023-03-01T00:49:29;1.00;99.90
53752;DHT22;41095;53.090;6.692;2023-03-01T00:51:55;1.00;99.90
53752;DHT22;41095;53.090;6.692;2023-03-01T00:54:20;0.90;99.90
53752;DHT22;41095;53.090;6.692;2023-03-01T00:56:46;1.60;99.90
53752;DHT22;41095;53.090;6.692;2023-03-01T00:59:12;0.80;99.90
53752;DHT22;41095;53.090;6.692;2023-03-01T01:01:37;0.80;99.90
53752;DHT22;41095;53.090;6.692;2023-03-01T01:04:09;0.70;99.90
53752;DHT22;41095;53.090;6.692;2023-03-01T01:06:45;2.30;99.90
53752;DHT22;41095;53.090;6.692;2023-03-01T01:09:15;0.60;99.90
53752;DHT22;41095;53.090;6.692;2023-03-01T01:11:49;1.40;99.90
53752;DHT22;41095;53.090;6.692;2023-03-01T01:14:16;0.60;99.90
53752;DHT22;41095;53.090;6.692;2023-03-01T01:16:42;0.70;99.90
53752;DHT22;41095;53.090;6.692;2023-03-01T01:19:09;0.60;99.90
53752;DHT22;41095;53.090;6.692;2023-03-01T01:21:35;0.80;99.90
53752;DHT22;41095;53.090;6.692;2023-03-01T01:24:03;0.60;99.90
53752;DHT22;41095;53.090;6.692;2023-03-01T01:26:31;0.50;99.90
53752;DHT22;41095;53.090;6.692;2023-03-01T01:28:58;0.50;99.90
53752;DHT22;41095;53.090;6.692;2023-03-01T01:31:24;0.60;99.90
53752;DHT22;41095;53.090;6.692;2023-03-01T01:33:51;0.60;99.90
53752;DHT22;41095;53.090;6.692;2023-03-01T01:36:17;0.40;99.90
53752;DHT22;41095;53.090;6.692;2023-03-01T01:38:42;1.10;99.90
53752;DHT22;41095;53.090;6.692;2023-03-01T01:41:09;0.50;99.90
53752;DHT22;41095;53.090;6.692;2023-03-01T01:43:44;0.50;99.90
53752;DHT22;41095;53.090;6.692;2023-03-01T01:48:50;0.50;99.90
53752;DHT22;41095;53.090;6.692;2023-03-01T01:51:22;1.70;99.90
53752;DHT22;41095;53.090;6.692;2023-03-01T01:53:54;1.00;99.90
53752;DHT22;41095;53.090;6.692;2023-03-01T01:56:22;0.80;99.90
53752;DHT22;41095;53.090;6.692;2023-03-01T01:58:49;0.40;99.90
53752;DHT22;41095;53.090;6.692;2023-03-01T02:01:16;0.30;99.90
53752;DHT22;41095;53.090;6.692;2023-03-01T02:03:43;0.30;99.90
53752;DHT22;41095;53.090;6.692;2023-03-01T02:08:37;0.50;99.90
53752;DHT22;41095;53.090;6.692;2023-03-01T02:11:04;1.00;99.90
53752;DHT22;41095;53.090;6.692;2023-03-01T02:13:33;0.30;99.90
53752;DHT22;41095;53.090;6.692;2023-03-01T02:16:03;0.30;99.90
53752;DHT22;41095;53.090;6.692;2023-03-01T02:18:29;0.40;99.90
53752;DHT22;41095;53.090;6.692;2023-03-01T02:21:27;1.40;99.90
53752;DHT22;41095;53.090;6.692;2023-03-01T02:23:56;0.40;99.90
53752;DHT22;41095;53.090;6.692;2023-03-01T02:26:35;0.70;99.90
53752;DHT22;41095;53.090;6.692;2023-03-01T02:29:05;0.20;99.90
53752;DHT22;41095;53.090;6.692;2023-03-01T02:31:32;0.40;99.90
53752;DHT22;41095;53.090;6.692;2023-03-01T02:34:25;1.00;99.90
53752;DHT22;41095;53.090;6.692;2023-03-01T02:37:01;0.30;99.90
53752;DHT22;41095;53.090;6.692;2023-03-01T02:39:39;0.20;99.90
53752;DHT22;41095;53.090;6.692;2023-03-01T02:42:11;0.10;99.90
53752;DHT22;41095;53.090;6.692;2023-03-01T02:44:37;0.00;99.90
53752;DHT22;41095;53.090;6.692;2023-03-01T02:47:04;0.20;99.90
53752;DHT22;41095;53.090;6.692;2023-03-01T02:49:34;0.10;99.90
53752;DHT22;41095;53.090;6.692;2023-03-01T02:57:28;0.00;99.90
53752;DHT22;41095;53.090;6.692;2023-03-01T02:59:56;1.00;99.90
53752;DHT22;41095;53.090;6.692;2023-03-01T03:02:28;-0.10;99.90
53752;DHT22;41095;53.090;6.692;2023-03-01T03:05:07;-0.20;99.90
53752;DHT22;41095;53.090;6.692;2023-03-01T03:07:35;-0.30;99.90
53752;DHT22;41095;53.090;6.692;2023-03-01T03:10:02;-0.30;99.90
53752;DHT22;41095;53.090;6.692;2023-03-01T03:12:29;-0.40;99.90
53752;DHT22;41095;53.090;6.692;2023-03-01T03:14:54;-0.20;99.90
53752;DHT22;41095;53.090;6.692;2023-03-01T03:17:20;-0.10;99.90
53752;DHT22;41095;53.090;6.692;2023-03-01T03:19:46;0.20;99.90
53752;DHT22;41095;53.090;6.692;2023-03-01T03:22:14;-0.10;99.90
53752;DHT22;41095;53.090;6.692;2023-03-01T03:24:40;0.30;99.90
53752;DHT22;41095;53.090;6.692;2023-03-01T03:27:07;0.50;99.90
53752;DHT22;41095;53.090;6.692;2023-03-01T03:29:34;0.00;99.90
53752;DHT22;41095;53.090;6.692;2023-03-01T03:32:00;-0.70;99.90
53752;DHT22;41095;53.090;6.692;2023-03-01T03:34:25;-0.60;99.90
53752;DHT22;41095;53.090;6.692;2023-03-01T03:36:55;-0.30;99.90
53752;DHT22;41095;53.090;6.692;2023-03-01T03:39:23;-0.20;99.90
53752;DHT22;41095;53.090;6.692;2023-03-01T03:41:49;-0.60;99.90
53752;DHT22;41095;53.090;6.692;2023-03-01T03:44:15;0.00;99.90
53752;DHT22;41095;53.090;6.692;2023-03-01T03:46:40;-0.70;99.90
53752;DHT22;41095;53.090;6.692;2023-03-01T03:49:06;-0.70;99.90
53752;DHT22;41095;53.090;6.692;2023-03-01T03:51:32;-0.40;99.90
53752;DHT22;41095;53.090;6.692;2023-03-01T03:53:57;1.00;99.90
53752;DHT22;41095;53.090;6.692;2023-03-01T03:56:23;0.40;99.90
53752;DHT22;41095;53.090;6.692;2023-03-01T03:58:52;-0.40;99.90
53752;DHT22;41095;53.090;6.692;2023-03-01T04:01:18;-0.20;99.90
53752;DHT22;41095;53.090;6.692;2023-03-01T04:03:43;-0.10;99.90
53752;DHT22;41095;53.090;6.692;2023-03-01T04:06:15;-0.80;99.90
53752;DHT22;41095;53.090;6.692;2023-03-01T04:08:41;0.70;99.90
53752;DHT22;41095;53.090;6.692;2023-03-01T04:11:06;-0.40;99.90
53752;DHT22;41095;53.090;6.692;2023-03-01T04:13:52;-0.80;99.90
53752;DHT22;41095;53.090;6.692;2023-03-01T04:16:18;-0.80;99.90
53752;DHT22;41095;53.090;6.692;2023-03-01T04:18:44;-0.10;99.90
53752;DHT22;41095;53.090;6.692;2023-03-01T04:21:10;0.90;99.90
53752;DHT22;41095;53.090;6.692;2023-03-01T04:23:36;-0.50;99.90
53752;DHT22;41095;53.090;6.692;2023-03-01T04:26:03;-0.50;99.90
53752;DHT22;41095;53.090;6.692;2023-03-01T04:28:37;-0.60;99.90
53752;DHT22;41095;53.090;6.692;2023-03-01T04:31:10;-0.70;99.90
53752;DHT22;41095;53.090;6.692;2023-03-01T04:33:42;0.50;99.90
53752;DHT22;41095;53.090;6.692;2023-03-01T04:36:08;-0.50;99.90
53752;DHT22;41095;53.090;6.692;2023-03-01T04:38:38;-1.00;99.90
53752;DHT22;41095;53.090;6.692;2023-03-01T04:41:09;-0.70;99.90
53752;DHT22;41095;53.090;6.692;2023-03-01T04:43:36;-0.10;99.90
53752;DHT22;41095;53.090;6.692;2023-03-01T04:46:03;0.00;99.90
53752;DHT22;41095;53.090;6.692;2023-03-01T04:48:30;-1.00;99.90
53752;DHT22;41095;53.090;6.692;2023-03-01T04:50:58;-0.90;99.90
53752;DHT22;41095;53.090;6.692;2023-03-01T04:53:24;-0.90;99.90
53752;DHT22;41095;53.090;6.692;2023-03-01T04:55:50;-0.90;99.90
53752;DHT22;41095;53.090;6.692;2023-03-01T04:58:16;-0.10;99.90
53752;DHT22;41095;53.090;6.692;2023-03-01T05:00:42;0.00;99.90
53752;DHT22;41095;53.090;6.692;2023-03-01T05:03:08;-0.50;99.90
53752;DHT22;41095;53.090;6.692;2023-03-01T05:05:38;-0.70;99.90
53752;DHT22;41095;53.090;6.692;2023-03-01T05:08:06;-0.80;99.90
53752;DHT22;41095;53.090;6.692;2023-03-01T05:10:34;-0.90;99.90
53752;DHT22;41095;53.090;6.692;2023-03-01T05:13:01;-0.60;99.90
53752;DHT22;41095;53.090;6.692;2023-03-01T05:15:29;0.70;99.90
53752;DHT22;41095;53.090;6.692;2023-03-01T05:17:56;-1.10;99.90
53752;DHT22;41095;53.090;6.692;2023-03-01T05:20:24;-1.30;99.90
53752;DHT22;41095;53.090;6.692;2023-03-01T05:22:56;0.40;99.90
53752;DHT22;41095;53.090;6.692;2023-03-01T05:25:22;-0.60;99.90
53752;DHT22;41095;53.090;6.692;2023-03-01T05:27:48;-1.30;99.90
53752;DHT22;41095;53.090;6.692;2023-03-01T05:30:14;-0.60;99.90
53752;DHT22;41095;53.090;6.692;2023-03-01T05:32:41;-1.20;99.90
53752;DHT22;41095;53.090;6.692;2023-03-01T05:35:09;-0.10;99.90
53752;DHT22;41095;53.090;6.692;2023-03-01T05:37:42;-1.10;99.90
53752;DHT22;41095;53.090;6.692;2023-03-01T05:40:14;0.20;99.90
53752;DHT22;41095;53.090;6.692;2023-03-01T05:42:44;-0.90;99.90
53752;DHT22;41095;53.090;6.692;2023-03-01T05:45:11;-0.80;99.90
53752;DHT22;41095;53.090;6.692;2023-03-01T05:47:39;-0.70;99.90
53752;DHT22;41095;53.090;6.692;2023-03-01T05:50:20;-0.70;99.90
53752;DHT22;41095;53.090;6.692;2023-03-01T05:52:48;-0.60;99.90
53752;DHT22;41095;53.090;6.692;2023-03-01T05:55:16;-0.10;99.90
53752;DHT22;41095;53.090;6.692;2023-03-01T05:57:42;0.40;99.90
53752;DHT22;41095;53.090;6.692;2023-03-01T06:00:10;0.20;99.90
53752;DHT22;41095;53.090;6.692;2023-03-01T06:02:36;-0.60;99.90
53752;DHT22;41095;53.090;6.692;2023-03-01T06:05:01;1.50;99.90
53752;DHT22;41095;53.090;6.692;2023-03-01T06:07:28;-0.60;99.90
53752;DHT22;41095;53.090;6.692;2023-03-01T06:09:53;0.60;99.90
53752;DHT22;41095;53.090;6.692;2023-03-01T06:12:19;0.00;99.90
53752;DHT22;41095;53.090;6.692;2023-03-01T06:14:46;-0.50;99.90
53752;DHT22;41095;53.090;6.692;2023-03-01T06:17:13;-0.80;99.90
53752;DHT22;41095;53.090;6.692;2023-03-01T06:19:38;-0.80;99.90
53752;DHT22;41095;53.090;6.692;2023-03-01T06:22:04;-0.10;99.90
53752;DHT22;41095;53.090;6.692;2023-03-01T06:24:30;0.90;99.90
53752;DHT22;41095;53.090;6.692;2023-03-01T06:26:55;-0.70;99.90
53752;DHT22;41095;53.090;6.692;2023-03-01T06:29:21;-0.60;99.90
53752;DHT22;41095;53.090;6.692;2023-03-01T06:31:48;-0.80;99.90
53752;DHT22;41095;53.090;6.692;2023-03-01T06:34:14;0.10;99.90
53752;DHT22;41095;53.090;6.692;2023-03-01T06:36:40;-1.00;99.90
53752;DHT22;41095;53.090;6.692;2023-03-01T06:39:06;-1.10;99.90
53752;DHT22;41095;53.090;6.692;2023-03-01T06:41:32;-1.10;99.90
53752;DHT22;41095;53.090;6.692;2023-03-01T06:43:59;-1.20;99.90
53752;DHT22;41095;53.090;6.692;2023-03-01T06:46:25;-0.30;99.90
53752;DHT22;41095;53.090;6.692;2023-03-01T06:48:51;-1.10;99.90
53752;DHT22;41095;53.090;6.692;2023-03-01T06:51:16;-1.00;99.90
53752;DHT22;41095;53.090;6.692;2023-03-01T06:53:42;-0.80;99.90
53752;DHT22;41095;53.090;6.692;2023-03-01T06:56:08;0.90;99.90
53752;DHT22;41095;53.090;6.692;2023-03-01T06:58:33;-0.70;99.90
53752;DHT22;41095;53.090;6.692;2023-03-01T07:00:59;-0.70;99.90
53752;DHT22;41095;53.090;6.692;2023-03-01T07:03:25;0.10;99.90
53752;DHT22;41095;53.090;6.692;2023-03-01T07:05:51;-0.50;99.90
53752;DHT22;41095;53.090;6.692;2023-03-01T07:08:18;-0.50;99.90
53752;DHT22;41095;53.090;6.692;2023-03-01T07:10:44;0.80;99.90
53752;DHT22;41095;53.090;6.692;2023-03-01T07:13:10;1.00;99.90
53752;DHT22;41095;53.090;6.692;2023-03-01T07:15:36;-0.20;99.90
53752;DHT22;41095;53.090;6.692;2023-03-01T07:18:01;-0.10;99.90
53752;DHT22;41095;53.090;6.692;2023-03-01T07:20:27;-0.10;99.90
53752;DHT22;41095;53.090;6.692;2023-03-01T07:22:54;0.00;99.90
53752;DHT22;41095;53.090;6.692;2023-03-01T07:25:20;0.10;99.90
53752;DHT22;41095;53.090;6.692;2023-03-01T07:27:50;1.30;99.90
53752;DHT22;41095;53.090;6.692;2023-03-01T07:30:17;0.20;99.90
53752;DHT22;41095;53.090;6.692;2023-03-01T07:32:42;0.30;99.90
53752;DHT22;41095;53.090;6.692;2023-03-01T07:35:08;0.40;99.90
53752;DHT22;41095;53.090;6.692;2023-03-01T07:37:34;0.40;99.90
53752;DHT22;41095;53.090;6.692;2023-03-01T07:40:00;1.10;99.90
53752;DHT22;41095;53.090;6.692;2023-03-01T07:42:25;0.60;99.90
53752;DHT22;41095;53.090;6.692;2023-03-01T07:44:51;0.60;99.90
53752;DHT22;41095;53.090;6.692;2023-03-01T07:47:17;0.90;99.90
53752;DHT22;41095;53.090;6.692;2023-03-01T07:49:42;0.80;99.90
53752;DHT22;41095;53.090;6.692;2023-03-01T07:52:10;0.90;99.90
53752;DHT22;41095;53.090;6.692;2023-03-01T07:54:37;1.10;99.90
53752;DHT22;41095;53.090;6.692;2023-03-01T07:57:03;1.20;99.90
53752;DHT22;41095;53.090;6.692;2023-03-01T07:59:28;1.40;99.90
53752;DHT22;41095;53.090;6.692;2023-03-01T08:01:56;2.50;99.90
53752;DHT22;41095;53.090;6.692;2023-03-01T08:04:22;1.80;99.90
53752;DHT22;41095;53.090;6.692;2023-03-01T08:06:50;1.70;99.90
53752;DHT22;41095;53.090;6.692;2023-03-01T08:09:16;1.60;99.90
53752;DHT22;41095;53.090;6.692;2023-03-01T08:11:42;1.60;99.90
53752;DHT22;41095;53.090;6.692;2023-03-01T08:14:08;1.90;99.90
53752;DHT22;41095;53.090;6.692;2023-03-01T08:16:34;2.00;99.90
53752;DHT22;41095;53.090;6.692;2023-03-01T08:19:08;1.80;99.90
53752;DHT22;41095;53.090;6.692;2023-03-01T08:21:34;2.00;99.90
53752;DHT22;41095;53.090;6.692;2023-03-01T08:24:01;1.70;99.90
53752;DHT22;41095;53.090;6.692;2023-03-01T08:26:27;1.80;99.90
53752;DHT22;41095;53.090;6.692;2023-03-01T08:28:53;1.90;99.90
53752;DHT22;41095;53.090;6.692;2023-03-01T08:31:24;1.80;99.90
53752;DHT22;41095;53.090;6.692;2023-03-01T08:33:53;1.90;99.90
53752;DHT22;41095;53.090;6.692;2023-03-01T08:36:24;1.90;99.90
53752;DHT22;41095;53.090;6.692;2023-03-01T08:38:50;1.80;99.90
53752;DHT22;41095;53.090;6.692;2023-03-01T08:41:16;1.70;99.90
53752;DHT22;41095;53.090;6.692;2023-03-01T08:43:42;1.70;99.90
53752;DHT22;41095;53.090;6.692;2023-03-01T08:46:08;1.70;99.90
53752;DHT22;41095;53.090;6.692;2023-03-01T08:48:34;1.90;99.90
53752;DHT22;41095;53.090;6.692;2023-03-01T08:51:11;2.00;99.90
53752;DHT22;41095;53.090;6.692;2023-03-01T08:53:38;2.20;99.90
53752;DHT22;41095;53.090;6.692;2023-03-01T08:56:04;2.70;99.90
53752;DHT22;41095;53.090;6.692;2023-03-01T08:58:30;2.50;99.90
53752;DHT22;41095;53.090;6.692;2023-03-01T09:00:55;2.60;99.90
53752;DHT22;41095;53.090;6.692;2023-03-01T09:03:25;2.70;99.90
53752;DHT22;41095;53.090;6.692;2023-03-01T09:05:51;2.60;99.90
53752;DHT22;41095;53.090;6.692;2023-03-01T09:08:18;2.80;99.90
53752;DHT22;41095;53.090;6.692;2023-03-01T09:10:43;2.90;99.90
53752;DHT22;41095;53.090;6.692;2023-03-01T09:13:09;2.90;99.90
53752;DHT22;41095;53.090;6.692;2023-03-01T09:15:37;3.30;99.90
53752;DHT22;41095;53.090;6.692;2023-03-01T09:18:04;3.10;99.90
53752;DHT22;41095;53.090;6.692;2023-03-01T09:20:31;3.20;99.90
53752;DHT22;41095;53.090;6.692;2023-03-01T09:22:57;3.40;99.90
53752;DHT22;41095;53.090;6.692;2023-03-01T09:25:23;3.60;99.90
53752;DHT22;41095;53.090;6.692;2023-03-01T09:27:53;3.70;99.90
53752;DHT22;41095;53.090;6.692;2023-03-01T09:30:19;3.50;99.90
53752;DHT22;41095;53.090;6.692;2023-03-01T09:32:45;3.50;99.90
53752;DHT22;41095;53.090;6.692;2023-03-01T09:35:11;3.60;99.90
53752;DHT22;41095;53.090;6.692;2023-03-01T09:37:37;3.80;99.90
53752;DHT22;41095;53.090;6.692;2023-03-01T09:40:05;3.70;99.90
53752;DHT22;41095;53.090;6.692;2023-03-01T09:42:36;3.70;99.90
53752;DHT22;41095;53.090;6.692;2023-03-01T09:45:19;3.60;99.90
53752;DHT22;41095;53.090;6.692;2023-03-01T09:47:47;3.60;99.90
53752;DHT22;41095;53.090;6.692;2023-03-01T09:50:18;3.80;99.90
53752;DHT22;41095;53.090;6.692;2023-03-01T09:52:52;3.70;99.90
53752;DHT22;41095;53.090;6.692;2023-03-01T10:00:50;4.00;99.90
53752;DHT22;41095;53.090;6.692;2023-03-01T10:03:28;4.40;99.90
53752;DHT22;41095;53.090;6.692;2023-03-01T10:08:27;5.10;99.90
53752;DHT22;41095;53.090;6.692;2023-03-01T10:10:55;5.50;99.90
53752;DHT22;41095;53.090;6.692;2023-03-01T10:16:16;7.20;99.90
53752;DHT22;41095;53.090;6.692;2023-03-01T10:18:51;8.80;99.90
53752;DHT22;41095;53.090;6.692;2023-03-01T10:21:20;10.20;99.90
53752;DHT22;41095;53.090;6.692;2023-03-01T10:23:47;11.40;99.90
53752;DHT22;41095;53.090;6.692;2023-03-01T10:29:05;12.20;99.90
53752;DHT22;41095;53.090;6.692;2023-03-01T10:31:53;12.60;99.90
53752;DHT22;41095;53.090;6.692;2023-03-01T10:34:28;13.00;99.90
53752;DHT22;41095;53.090;6.692;2023-03-01T10:37:18;12.70;99.90
53752;DHT22;41095;53.090;6.692;2023-03-01T10:40:06;13.20;99.90
53752;DHT22;41095;53.090;6.692;2023-03-01T10:42:46;13.70;99.70
53752;DHT22;41095;53.090;6.692;2023-03-01T10:45:38;13.50;98.40
53752;DHT22;41095;53.090;6.692;2023-03-01T10:48:24;13.20;97.70
53752;DHT22;41095;53.090;6.692;2023-03-01T10:51:16;13.20;99.40
53752;DHT22;41095;53.090;6.692;2023-03-01T10:53:48;12.80;96.40
53752;DHT22;41095;53.090;6.692;2023-03-01T10:56:15;12.00;99.30
53752;DHT22;41095;53.090;6.692;2023-03-01T10:58:59;10.90;99.90
53752;DHT22;41095;53.090;6.692;2023-03-01T11:01:34;9.50;99.90
53752;DHT22;41095;53.090;6.692;2023-03-01T11:06:36;8.00;99.90
53752;DHT22;41095;53.090;6.692;2023-03-01T11:09:21;7.60;99.90
53752;DHT22;41095;53.090;6.692;2023-03-01T11:11:52;7.00;99.90
53752;DHT22;41095;53.090;6.692;2023-03-01T11:14:22;7.00;99.90
53752;DHT22;41095;53.090;6.692;2023-03-01T11:16:57;6.90;99.90
53752;DHT22;41095;53.090;6.692;2023-03-01T11:19:23;6.70;99.90
53752;DHT22;41095;53.090;6.692;2023-03-01T11:24:42;6.70;99.90
53752;DHT22;41095;53.090;6.692;2023-03-01T11:27:33;6.80;99.90
53752;DHT22;41095;53.090;6.692;2023-03-01T11:30:07;6.80;99.90
53752;DHT22;41095;53.090;6.692;2023-03-01T11:32:47;6.70;99.90
53752;DHT22;41095;53.090;6.692;2023-03-01T11:35:20;6.70;99.90
53752;DHT22;41095;53.090;6.692;2023-03-01T11:40:44;6.70;99.90
53752;DHT22;41095;53.090;6.692;2023-03-01T11:51:52;6.70;99.90
53752;DHT22;41095;53.090;6.692;2023-03-01T11:54:51;6.80;99.90
53752;DHT22;41095;53.090;6.692;2023-03-01T12:08:25;6.90;99.90
53752;DHT22;41095;53.090;6.692;2023-03-01T12:25:20;7.10;99.90
53752;DHT22;41095;53.090;6.692;2023-03-01T12:38:33;7.20;99.90
53752;DHT22;41095;53.090;6.692;2023-03-01T12:41:23;7.20;99.60
53752;DHT22;41095;53.090;6.692;2023-03-01T12:46:51;7.10;99.30
53752;DHT22;41095;53.090;6.692;2023-03-01T12:49:20;7.20;99.90
53752;DHT22;41095;53.090;6.692;2023-03-01T12:52:21;7.30;99.90
53752;DHT22;41095;53.090;6.692;2023-03-01T12:54:50;7.50;99.90
53752;DHT22;41095;53.090;6.692;2023-03-01T12:57:40;7.40;99.90
53752;DHT22;41095;53.090;6.692;2023-03-01T13:00:38;7.50;99.90
53752;DHT22;41095;53.090;6.692;2023-03-01T13:03:58;7.50;99.90
53752;DHT22;41095;53.090;6.692;2023-03-01T13:06:35;7.50;99.90
53752;DHT22;41095;53.090;6.692;2023-03-01T13:11:42;7.70;99.90
53752;DHT22;41095;53.090;6.692;2023-03-01T13:14:35;7.70;99.90
53752;DHT22;41095;53.090;6.692;2023-03-01T13:17:00;7.70;99.90
53752;DHT22;41095;53.090;6.692;2023-03-01T13:19:27;7.70;99.90
53752;DHT22;41095;53.090;6.692;2023-03-01T13:21:55;7.80;99.90
53752;DHT22;41095;53.090;6.692;2023-03-01T13:24:28;7.80;99.90
53752;DHT22;41095;53.090;6.692;2023-03-01T13:29:49;7.90;99.90
53752;DHT22;41095;53.090;6.692;2023-03-01T13:32:19;8.00;99.90
53752;DHT22;41095;53.090;6.692;2023-03-01T13:34:48;8.00;99.90
53752;DHT22;41095;53.090;6.692;2023-03-01T13:37:29;8.10;99.90
53752;DHT22;41095;53.090;6.692;2023-03-01T13:39:57;8.10;99.90
53752;DHT22;41095;53.090;6.692;2023-03-01T13:42:42;8.10;99.90
53752;DHT22;41095;53.090;6.692;2023-03-01T13:45:21;8.10;99.90
53752;DHT22;41095;53.090;6.692;2023-03-01T13:47:52;8.10;99.90
53752;DHT22;41095;53.090;6.692;2023-03-01T13:50:24;8.10;99.90
53752;DHT22;41095;53.090;6.692;2023-03-01T13:52:53;8.20;99.90
53752;DHT22;41095;53.090;6.692;2023-03-01T13:55:24;8.20;99.90
53752;DHT22;41095;53.090;6.692;2023-03-01T13:57:55;8.20;99.90
53752;DHT22;41095;53.090;6.692;2023-03-01T14:03:10;8.20;99.90
53752;DHT22;41095;53.090;6.692;2023-03-01T14:05:37;8.20;99.90
53752;DHT22;41095;53.090;6.692;2023-03-01T14:08:04;8.30;99.90
53752;DHT22;41095;53.090;6.692;2023-03-01T14:10:37;8.10;99.90
53752;DHT22;41095;53.090;6.692;2023-03-01T14:16:10;8.20;99.90
53752;DHT22;41095;53.090;6.692;2023-03-01T14:21:46;8.30;99.90
53752;DHT22;41095;53.090;6.692;2023-03-01T14:24:21;8.30;99.90
53752;DHT22;41095;53.090;6.692;2023-03-01T14:26:48;8.40;99.90
53752;DHT22;41095;53.090;6.692;2023-03-01T14:29:57;8.40;99.90
53752;DHT22;41095;53.090;6.692;2023-03-01T14:32:28;8.30;99.90
53752;DHT22;41095;53.090;6.692;2023-03-01T14:34:56;8.30;99.90
53752;DHT22;41095;53.090;6.692;2023-03-01T14:37:26;8.30;99.90
53752;DHT22;41095;53.090;6.692;2023-03-01T14:39:53;8.30;99.90
53752;DHT22;41095;53.090;6.692;2023-03-01T14:42:21;8.40;99.90
53752;DHT22;41095;53.090;6.692;2023-03-01T14:44:51;8.40;99.90
53752;DHT22;41095;53.090;6.692;2023-03-01T14:47:38;8.50;99.90
53752;DHT22;41095;53.090;6.692;2023-03-01T14:50:28;8.50;99.90
53752;DHT22;41095;53.090;6.692;2023-03-01T14:52:58;8.50;99.90
53752;DHT22;41095;53.090;6.692;2023-03-01T14:57:56;8.50;99.90
53752;DHT22;41095;53.090;6.692;2023-03-01T15:00:28;8.50;99.90
53752;DHT22;41095;53.090;6.692;2023-03-01T15:02:56;8.30;99.90
53752;DHT22;41095;53.090;6.692;2023-03-01T15:05:31;8.30;99.90
53752;DHT22;41095;53.090;6.692;2023-03-01T15:07:59;8.30;99.90
53752;DHT22;41095;53.090;6.692;2023-03-01T15:10:32;8.30;99.90
53752;DHT22;41095;53.090;6.692;2023-03-01T15:13:22;8.20;99.90
53752;DHT22;41095;53.090;6.692;2023-03-01T15:15:49;8.30;99.90
53752;DHT22;41095;53.090;6.692;2023-03-01T15:20:44;8.10;99.90
53752;DHT22;41095;53.090;6.692;2023-03-01T15:23:20;8.10;99.90
53752;DHT22;41095;53.090;6.692;2023-03-01T15:25:47;8.10;99.90
53752;DHT22;41095;53.090;6.692;2023-03-01T15:28:20;8.00;99.90
53752;DHT22;41095;53.090;6.692;2023-03-01T15:30:55;8.00;99.90
53752;DHT22;41095;53.090;6.692;2023-03-01T15:35:55;7.90;99.90
53752;DHT22;41095;53.090;6.692;2023-03-01T15:41:30;7.90;99.90
53752;DHT22;41095;53.090;6.692;2023-03-01T15:43:57;7.90;99.90
53752;DHT22;41095;53.090;6.692;2023-03-01T15:46:32;7.80;99.90
53752;DHT22;41095;53.090;6.692;2023-03-01T15:49:03;7.80;99.90
53752;DHT22;41095;53.090;6.692;2023-03-01T15:51:35;7.70;99.90
53752;DHT22;41095;53.090;6.692;2023-03-01T15:54:06;7.70;99.90
53752;DHT22;41095;53.090;6.692;2023-03-01T15:56:33;7.70;99.90
53752;DHT22;41095;53.090;6.692;2023-03-01T15:59:02;7.70;99.90
53752;DHT22;41095;53.090;6.692;2023-03-01T16:01:29;7.60;99.90
53752;DHT22;41095;53.090;6.692;2023-03-01T16:03:54;7.60;99.90
53752;DHT22;41095;53.090;6.692;2023-03-01T16:06:21;7.60;99.90
53752;DHT22;41095;53.090;6.692;2023-03-01T16:08:47;7.60;99.90
53752;DHT22;41095;53.090;6.692;2023-03-01T16:11:18;7.50;99.90
53752;DHT22;41095;53.090;6.692;2023-03-01T16:13:44;7.50;99.90
53752;DHT22;41095;53.090;6.692;2023-03-01T16:16:12;7.40;99.90
53752;DHT22;41095;53.090;6.692;2023-03-01T16:18:40;7.40;99.90
53752;DHT22;41095;53.090;6.692;2023-03-01T16:21:06;7.30;99.90
53752;DHT22;41095;53.090;6.692;2023-03-01T16:23:33;7.20;99.90
53752;DHT22;41095;53.090;6.692;2023-03-01T16:25:59;7.20;99.90
53752;DHT22;41095;53.090;6.692;2023-03-01T16:28:26;7.10;99.90
53752;DHT22;41095;53.090;6.692;2023-03-01T16:30:52;7.10;99.90
53752;DHT22;41095;53.090;6.692;2023-03-01T16:33:17;7.00;99.90
53752;DHT22;41095;53.090;6.692;2023-03-01T16:35:43;7.00;99.90
53752;DHT22;41095;53.090;6.692;2023-03-01T16:38:10;6.90;99.90
53752;DHT22;41095;53.090;6.692;2023-03-01T16:40:36;6.80;99.90
53752;DHT22;41095;53.090;6.692;2023-03-01T16:43:01;6.80;99.90
53752;DHT22;41095;53.090;6.692;2023-03-01T16:45:33;6.70;99.90
53752;DHT22;41095;53.090;6.692;2023-03-01T16:48:00;6.70;99.90
53752;DHT22;41095;53.090;6.692;2023-03-01T16:50:26;6.60;99.90
53752;DHT22;41095;53.090;6.692;2023-03-01T16:52:52;6.60;99.90
53752;DHT22;41095;53.090;6.692;2023-03-01T16:55:18;6.50;99.90
53752;DHT22;41095;53.090;6.692;2023-03-01T16:57:43;6.50;99.90
53752;DHT22;41095;53.090;6.692;2023-03-01T17:00:11;6.40;99.90
53752;DHT22;41095;53.090;6.692;2023-03-01T17:02:38;6.40;99.90
53752;DHT22;41095;53.090;6.692;2023-03-01T17:05:05;6.30;99.90
53752;DHT22;41095;53.090;6.692;2023-03-01T17:07:32;6.30;99.90
53752;DHT22;41095;53.090;6.692;2023-03-01T17:10:03;6.20;99.90
53752;DHT22;41095;53.090;6.692;2023-03-01T17:12:29;6.10;99.90
53752;DHT22;41095;53.090;6.692;2023-03-01T17:14:55;6.00;99.90
53752;DHT22;41095;53.090;6.692;2023-03-01T17:17:21;6.00;99.90
53752;DHT22;41095;53.090;6.692;2023-03-01T17:19:47;5.90;99.90
53752;DHT22;41095;53.090;6.692;2023-03-01T17:22:13;5.80;99.90
53752;DHT22;41095;53.090;6.692;2023-03-01T17:24:40;5.80;99.90
53752;DHT22;41095;53.090;6.692;2023-03-01T17:27:06;5.70;99.90
53752;DHT22;41095;53.090;6.692;2023-03-01T17:29:33;5.70;99.90
53752;DHT22;41095;53.090;6.692;2023-03-01T17:31:58;5.60;99.90
53752;DHT22;41095;53.090;6.692;2023-03-01T17:34:24;5.60;99.90
53752;DHT22;41095;53.090;6.692;2023-03-01T17:36:50;5.50;99.90
53752;DHT22;41095;53.090;6.692;2023-03-01T17:39:17;5.50;99.90
53752;DHT22;41095;53.090;6.692;2023-03-01T17:41:45;5.40;99.90